Terminal Aerodrome Forecast
Issued by NWS

Home | Current Version | Previous Version | Text Only | Print | Product List | Glossary On
Versions: 1 2 3 4 5 6 7 8 9 10 11 12 13 14 15 16 17 18 19 20 21 22 23 24 25 26 27
000
FTUS41 KBUF 271500 AAA
TAFJHW
TAF AMD
KJHW 271517Z 2715/2812 31007KT P6SM VCSH OVC045
     FM272000 29007KT 4SM -SN OVC015
     FM272300 27008KT 1SM -SN OVC007
     FM280800 29008KT 1SM -SN BKN015
      AMD LTD TO CLD VIS AND WIND=

USA.gov is the U.S. government's official web portal to all federal, state and local government web resources and services.